createdAt,value
2024-02-24T00:00:14.065Z,1.00
2024-02-24T00:01:18.364Z,0.97
2024-02-24T00:02:20.063Z,0.87
2024-02-24T00:03:22.919Z,0.78
2024-02-24T00:04:27.281Z,0.82
2024-02-24T00:05:29.177Z,0.79
2024-02-24T00:06:30.869Z,0.77
2024-02-24T00:07:32.770Z,0.79
2024-02-24T00:08:36.861Z,0.77
2024-02-24T00:09:38.820Z,0.73
2024-02-24T00:10:43.747Z,0.70
2024-02-24T00:11:45.746Z,0.72
2024-02-24T00:12:50.139Z,0.72
2024-02-24T00:13:54.888Z,0.71
2024-02-24T00:14:56.555Z,0.70
2024-02-24T00:15:58.169Z,0.60
2024-02-24T00:16:59.981Z,0.66
2024-02-24T00:18:01.634Z,0.57
2024-02-24T00:19:03.442Z,0.63
2024-02-24T00:20:09.354Z,0.67
2024-02-24T00:21:11.102Z,0.69
2024-02-24T00:22:14.739Z,0.60
2024-02-24T00:23:17.428Z,0.63
2024-02-24T00:24:19.217Z,0.60
2024-02-24T00:25:20.935Z,0.58
2024-02-24T00:26:25.067Z,0.55
2024-02-24T00:27:26.772Z,0.57
2024-02-24T00:28:28.446Z,0.54
2024-02-24T00:29:30.264Z,0.52
2024-02-24T00:30:31.941Z,0.39
2024-02-24T00:31:33.586Z,0.48
2024-02-24T00:32:35.303Z,0.35
2024-02-24T00:33:37.294Z,0.44
2024-02-24T00:34:39.146Z,0.46
2024-02-24T00:35:41.537Z,0.47
2024-02-24T00:36:43.231Z,0.48
2024-02-24T00:37:46.929Z,0.37
2024-02-24T00:38:50.810Z,0.43
2024-02-24T00:39:53.065Z,0.42
2024-02-24T00:40:56.985Z,0.46
2024-02-24T00:41:58.858Z,0.44
2024-02-24T00:43:00.821Z,0.34
2024-02-24T00:44:02.606Z,0.38
2024-02-24T00:45:04.894Z,0.32
2024-02-24T00:46:08.359Z,0.33
2024-02-24T00:47:10.192Z,0.33
2024-02-24T00:48:12.018Z,0.28
2024-02-24T00:49:16.008Z,0.24
2024-02-24T00:50:17.717Z,0.33
2024-02-24T00:51:19.366Z,0.29
2024-02-24T00:52:21.109Z,0.37
2024-02-24T00:53:23.091Z,0.33
2024-02-24T00:54:24.840Z,0.42
2024-02-24T00:55:26.520Z,0.42
2024-02-24T00:56:28.165Z,0.34
2024-02-24T00:57:30.157Z,0.43
2024-02-24T00:58:31.775Z,0.51
2024-02-24T00:59:38.066Z,0.54
2024-02-24T01:00:39.902Z,0.57
2024-02-24T01:01:41.507Z,0.53
2024-02-24T01:02:43.284Z,0.57
2024-02-24T01:03:45.074Z,0.63
2024-02-24T01:04:46.867Z,0.58
2024-02-24T01:05:48.612Z,0.66
2024-02-24T01:06:52.034Z,0.73
2024-02-24T01:07:59.665Z,0.77
2024-02-24T01:09:01.349Z,0.79
2024-02-24T01:10:03.373Z,0.82
2024-02-24T01:11:06.754Z,0.83
2024-02-24T01:12:08.544Z,0.87
2024-02-24T01:13:10.575Z,0.89
2024-02-24T01:14:12.408Z,0.90
2024-02-24T01:15:14.153Z,0.89
2024-02-24T01:16:17.464Z,0.76
2024-02-24T01:17:20.041Z,0.81
2024-02-24T01:18:24.566Z,0.83
2024-02-24T01:19:26.644Z,0.86
2024-02-24T01:20:30.849Z,0.90
2024-02-24T01:21:32.661Z,0.93
2024-02-24T01:22:34.394Z,0.98
2024-02-24T01:23:36.156Z,1.01
2024-02-24T01:24:37.821Z,1.01
2024-02-24T01:25:39.821Z,1.04
2024-02-24T01:26:41.981Z,1.04
2024-02-24T01:27:43.739Z,1.06
2024-02-24T01:28:49.504Z,1.07
2024-02-24T01:29:52.213Z,1.05
2024-02-24T01:30:53.862Z,1.03
2024-02-24T01:31:55.546Z,0.92
2024-02-24T01:32:57.496Z,0.99
2024-02-24T01:33:59.494Z,1.05
2024-02-24T01:35:02.310Z,1.08
2024-02-24T01:36:04.367Z,1.11
2024-02-24T01:37:06.035Z,1.13
2024-02-24T01:38:07.993Z,1.00
2024-02-24T01:39:10.239Z,1.07
2024-02-24T01:40:12.198Z,1.07
2024-02-24T01:41:14.172Z,1.12
2024-02-24T01:42:15.839Z,1.12
2024-02-24T01:43:28.034Z,1.08
2024-02-24T01:44:32.547Z,1.12
2024-02-24T01:45:34.228Z,1.16
2024-02-24T01:46:38.109Z,1.21
2024-02-24T01:47:42.412Z,1.25
2024-02-24T01:48:44.530Z,1.27
2024-02-24T01:49:47.513Z,1.33
2024-02-24T01:50:50.847Z,1.36
2024-02-24T01:51:56.805Z,1.38
2024-02-24T01:52:59.491Z,1.39
2024-02-24T01:54:04.356Z,1.45
2024-02-24T01:55:06.857Z,1.45
2024-02-24T01:56:11.106Z,1.47
2024-02-24T01:57:13.626Z,1.49
2024-02-24T01:58:18.482Z,1.51
2024-02-24T01:59:20.417Z,1.50
2024-02-24T02:12:44.543Z,1.57
2024-02-24T02:13:46.851Z,1.59
2024-02-24T02:14:51.852Z,1.49
2024-02-24T02:15:57.946Z,1.61
2024-02-24T02:16:59.768Z,1.68
2024-02-24T02:18:01.652Z,1.57
2024-02-24T02:19:05.588Z,1.64
2024-02-24T02:20:08.721Z,1.66
2024-02-24T02:21:12.242Z,1.64
2024-02-24T02:22:19.240Z,1.60
2024-02-24T02:23:21.548Z,1.58
2024-02-24T02:24:27.237Z,1.63
2024-02-24T02:25:29.056Z,1.65
2024-02-24T02:26:30.825Z,1.66
2024-02-24T02:27:33.650Z,1.61
2024-02-24T02:28:35.495Z,1.70
2024-02-24T02:29:37.246Z,1.75
2024-02-24T02:30:38.913Z,1.64
2024-02-24T02:31:40.576Z,1.69
2024-02-24T02:32:42.510Z,1.59
2024-02-24T02:33:44.537Z,1.63
2024-02-24T02:34:46.290Z,1.65
2024-02-24T02:35:48.058Z,1.40
2024-02-24T02:36:49.750Z,1.50
2024-02-24T02:37:51.310Z,1.40
2024-02-24T02:38:55.087Z,1.44
2024-02-24T02:39:56.741Z,1.46
2024-02-24T02:41:02.917Z,1.35
2024-02-24T02:42:04.878Z,1.39
2024-02-24T02:43:07.063Z,1.44
2024-02-24T02:44:09.803Z,1.41
2024-02-24T02:45:11.573Z,1.36
2024-02-24T02:46:17.998Z,1.36
2024-02-24T02:47:23.734Z,1.37
2024-02-24T02:48:26.343Z,1.34
2024-02-24T02:49:28.405Z,1.29
2024-02-24T02:50:30.179Z,1.27
2024-02-24T02:51:31.960Z,1.27
2024-02-24T02:52:33.489Z,1.09
2024-02-24T02:53:37.358Z,1.16
2024-02-24T02:54:39.430Z,1.16
2024-02-24T02:55:41.354Z,1.21
2024-02-24T02:56:45.340Z,1.22
2024-02-24T02:57:47.221Z,1.25
2024-02-24T02:58:53.507Z,1.27
2024-02-24T02:59:55.276Z,1.28
2024-02-24T03:00:57.138Z,1.31
2024-02-24T03:02:00.257Z,1.32
2024-02-24T03:03:09.196Z,1.32
2024-02-24T03:04:10.970Z,1.33
2024-02-24T03:05:12.726Z,1.28
2024-02-24T03:06:18.905Z,1.38
2024-02-24T03:07:23.210Z,1.39
2024-02-24T03:08:33.980Z,1.41
2024-02-24T03:09:38.271Z,1.38
2024-02-24T03:10:42.552Z,1.40
2024-02-24T03:11:47.060Z,1.40
2024-02-24T03:12:51.265Z,1.46
2024-02-24T03:13:52.851Z,1.41
2024-02-24T03:14:54.541Z,1.51
2024-02-24T03:15:56.313Z,1.40
2024-02-24T03:16:58.275Z,1.47
2024-02-24T03:17:59.987Z,1.46
2024-02-24T03:19:02.132Z,1.44
2024-02-24T03:20:05.319Z,1.48
2024-02-24T03:21:07.136Z,1.51
2024-02-24T03:22:08.745Z,1.38
2024-02-24T03:23:15.058Z,1.41
2024-02-24T03:24:16.743Z,1.50
2024-02-24T03:25:18.329Z,1.41
2024-02-24T03:26:22.739Z,1.42
2024-02-24T03:27:25.173Z,1.44
2024-02-24T03:28:27.483Z,1.38
2024-02-24T03:29:29.333Z,1.51
2024-02-24T03:30:31.029Z,1.51
2024-02-24T03:31:34.992Z,1.63
2024-02-24T03:32:39.810Z,1.68
2024-02-24T03:33:41.681Z,1.59
2024-02-24T03:34:45.582Z,1.67
2024-02-24T03:35:47.238Z,1.58
2024-02-24T03:36:49.121Z,1.68
2024-02-24T03:37:52.067Z,1.75
2024-02-24T03:38:58.356Z,1.76
2024-02-24T03:40:00.403Z,1.80
2024-02-24T03:41:03.047Z,1.79
2024-02-24T03:42:07.433Z,1.79
2024-02-24T03:43:09.141Z,1.84
2024-02-24T03:44:10.721Z,1.69
2024-02-24T03:45:15.125Z,1.78
2024-02-24T03:46:17.173Z,1.76
2024-02-24T03:47:18.963Z,1.77
2024-02-24T03:48:20.985Z,1.74
2024-02-24T03:49:22.930Z,1.76
2024-02-24T03:50:27.000Z,1.86
2024-02-24T03:51:29.346Z,1.89
2024-02-24T03:52:31.205Z,1.92
2024-02-24T03:53:33.082Z,1.94
2024-02-24T03:54:34.841Z,1.98
2024-02-24T03:55:36.471Z,2.02
2024-02-24T03:56:38.140Z,1.87
2024-02-24T03:57:39.946Z,1.93
2024-02-24T03:58:42.530Z,1.83
2024-02-24T03:59:44.098Z,1.78
2024-02-24T04:00:51.688Z,1.87
2024-02-24T04:01:53.502Z,1.96
2024-02-24T04:02:55.181Z,1.89
2024-02-24T04:03:59.351Z,1.97
2024-02-24T04:05:02.126Z,2.02
2024-02-24T04:06:04.778Z,2.05
2024-02-24T04:07:06.756Z,2.06
2024-02-24T04:08:08.418Z,1.93
2024-02-24T04:09:10.173Z,1.92
2024-02-24T04:10:12.306Z,1.91
2024-02-24T04:11:14.176Z,1.84
2024-02-24T04:12:15.978Z,1.74
2024-02-24T04:13:21.489Z,1.71
2024-02-24T04:14:24.072Z,1.57
2024-02-24T04:15:25.816Z,1.48
2024-02-24T04:16:27.463Z,1.33
2024-02-24T04:17:31.454Z,1.49
2024-02-24T04:18:33.976Z,1.63
2024-02-24T04:19:35.874Z,1.74
2024-02-24T04:20:37.475Z,1.70
2024-02-24T04:21:41.371Z,1.86
2024-02-24T04:22:43.438Z,1.96
2024-02-24T04:23:45.513Z,2.03
2024-02-24T04:24:47.357Z,2.06
2024-02-24T04:25:49.298Z,1.97
2024-02-24T04:26:51.194Z,2.01
2024-02-24T04:27:52.848Z,1.91
2024-02-24T04:28:54.508Z,1.77
2024-02-24T04:29:56.280Z,1.65
2024-02-24T04:30:57.960Z,1.79
2024-02-24T04:31:59.673Z,1.70
2024-02-24T04:33:04.481Z,1.87
2024-02-24T04:34:06.501Z,1.85
2024-02-24T04:35:11.357Z,1.86
2024-02-24T04:36:13.245Z,1.86
2024-02-24T04:37:15.938Z,1.90
2024-02-24T04:38:19.793Z,1.93
2024-02-24T04:39:22.209Z,2.05
2024-02-24T04:40:25.900Z,2.12
2024-02-24T04:41:27.566Z,2.09
2024-02-24T04:42:29.270Z,2.16
2024-02-24T04:43:32.336Z,2.04
2024-02-24T04:44:35.295Z,2.17
2024-02-24T04:45:41.555Z,2.21
2024-02-24T04:46:43.300Z,2.18
2024-02-24T04:47:45.453Z,2.19
2024-02-24T04:48:49.906Z,2.23
2024-02-24T04:49:52.626Z,2.30
2024-02-24T04:51:02.230Z,2.30
2024-02-24T04:52:05.848Z,2.33
2024-02-24T04:53:07.813Z,2.35
2024-02-24T04:54:11.778Z,2.35
2024-02-24T04:55:13.660Z,2.39
2024-02-24T04:56:17.873Z,2.41
2024-02-24T04:57:21.968Z,2.42
2024-02-24T04:58:25.766Z,2.46
2024-02-24T04:59:28.524Z,2.45
2024-02-24T05:02:09.175Z,2.02
2024-02-24T05:03:10.940Z,1.92
2024-02-24T05:04:12.632Z,1.83
2024-02-24T05:05:14.484Z,1.98
2024-02-24T05:06:16.391Z,2.06
2024-02-24T05:07:20.503Z,2.03
2024-02-24T05:08:22.228Z,2.00
2024-02-24T05:09:24.232Z,2.01
2024-02-24T05:10:27.193Z,2.07
2024-02-24T05:11:29.042Z,2.06
2024-02-24T05:12:30.818Z,2.07
2024-02-24T05:13:32.813Z,1.94
2024-02-24T05:14:34.535Z,2.03
2024-02-24T05:15:36.604Z,2.01
2024-02-24T05:16:41.515Z,1.92
2024-02-24T05:17:44.060Z,1.90
2024-02-24T05:18:48.476Z,1.85
2024-02-24T05:19:50.282Z,1.84
2024-02-24T05:20:52.114Z,1.74
2024-02-24T05:21:56.054Z,1.74
2024-02-24T05:22:58.086Z,1.79
2024-02-24T05:24:02.294Z,1.78
2024-02-24T05:25:04.478Z,1.62
2024-02-24T05:26:06.106Z,1.54
2024-02-24T05:27:07.806Z,1.34
2024-02-24T05:28:10.275Z,1.57
2024-02-24T05:29:12.255Z,1.77
2024-02-24T05:30:14.440Z,1.62
2024-02-24T05:31:16.972Z,1.79
2024-02-24T05:32:18.694Z,1.89
2024-02-24T05:33:20.800Z,1.95
2024-02-24T05:34:22.868Z,2.01
2024-02-24T05:35:24.770Z,2.03
2024-02-24T05:36:26.725Z,2.01
2024-02-24T05:37:28.680Z,2.06
2024-02-24T05:38:30.307Z,1.98
2024-02-24T05:39:31.949Z,2.07
2024-02-24T05:40:36.069Z,1.98
2024-02-24T05:41:37.952Z,2.04
2024-02-24T05:42:39.790Z,2.09
2024-02-24T05:43:41.934Z,2.10
2024-02-24T05:44:43.666Z,2.08
2024-02-24T05:45:45.233Z,1.93
2024-02-24T05:46:47.308Z,1.98
2024-02-24T05:47:51.415Z,2.01
2024-02-24T05:48:53.309Z,1.98
2024-02-24T05:49:55.203Z,1.97
2024-02-24T05:50:57.440Z,1.81
2024-02-24T05:51:59.138Z,1.86
2024-02-24T05:53:03.487Z,1.83
2024-02-24T05:54:05.322Z,1.83
2024-02-24T05:55:08.889Z,1.84
2024-02-24T05:56:10.668Z,1.78
2024-02-24T05:57:12.287Z,1.56
2024-02-24T05:58:13.953Z,1.66
2024-02-24T05:59:18.533Z,1.56
2024-02-24T06:00:20.349Z,1.60
2024-02-24T06:01:21.971Z,1.57
2024-02-24T06:02:23.538Z,1.44
2024-02-24T06:03:27.426Z,1.53
2024-02-24T06:04:31.240Z,1.52
2024-02-24T06:05:33.928Z,1.51
2024-02-24T06:06:35.780Z,1.55
2024-02-24T06:07:40.077Z,1.57
2024-02-24T06:08:45.067Z,1.52
2024-02-24T06:09:49.068Z,1.54
2024-02-24T06:10:50.839Z,1.48
2024-02-24T06:11:52.846Z,1.48
2024-02-24T06:12:57.036Z,1.46
2024-02-24T06:13:58.697Z,1.46
2024-02-24T06:15:00.366Z,1.33
2024-02-24T06:16:02.418Z,1.39
2024-02-24T06:17:04.701Z,1.40
2024-02-24T06:18:06.772Z,1.41
2024-02-24T06:19:08.521Z,1.36
2024-02-24T06:20:13.179Z,1.33
2024-02-24T06:21:15.422Z,1.30
2024-02-24T06:22:17.332Z,1.28
2024-02-24T06:23:19.204Z,1.27
2024-02-24T06:24:21.177Z,1.27
2024-02-24T06:25:23.688Z,1.24
2024-02-24T06:26:27.919Z,1.25
2024-02-24T06:27:32.266Z,1.26
2024-02-24T06:28:34.009Z,1.23
2024-02-24T06:29:35.549Z,1.07
2024-02-24T06:30:38.740Z,1.15
2024-02-24T06:31:40.365Z,1.15
2024-02-24T06:32:42.133Z,1.11
2024-02-24T06:33:44.018Z,1.11
2024-02-24T06:34:46.673Z,1.06
2024-02-24T06:35:50.878Z,1.03
2024-02-24T06:36:52.619Z,1.00
2024-02-24T06:37:54.417Z,0.95
2024-02-24T06:38:58.607Z,0.90
2024-02-24T06:40:03.575Z,0.81
2024-02-24T06:41:05.339Z,0.75
2024-02-24T06:42:07.112Z,0.73
2024-02-24T06:43:08.871Z,0.74
2024-02-24T06:44:10.923Z,0.71
2024-02-24T06:45:12.684Z,0.70
2024-02-24T06:46:15.638Z,0.48
2024-02-24T06:47:28.383Z,0.60
2024-02-24T06:48:34.146Z,0.68
2024-02-24T06:49:36.883Z,0.67
2024-02-24T06:50:38.691Z,0.71
2024-02-24T06:51:41.241Z,0.69
2024-02-24T06:52:42.916Z,0.72
2024-02-24T06:53:44.703Z,0.72
2024-02-24T06:54:46.352Z,0.74
2024-02-24T06:55:50.196Z,0.65
2024-02-24T06:56:58.485Z,0.74
2024-02-24T06:58:02.022Z,0.78
2024-02-24T06:59:07.814Z,0.81
2024-02-24T07:00:10.610Z,0.84
2024-02-24T07:01:23.754Z,0.85
2024-02-24T07:02:26.080Z,0.89
2024-02-24T07:03:28.107Z,0.89
2024-02-24T07:04:31.902Z,0.87
2024-02-24T07:05:33.705Z,0.85
2024-02-24T07:06:38.691Z,0.86
2024-02-24T07:07:40.567Z,0.83
2024-02-24T07:08:42.484Z,0.85
2024-02-24T07:09:44.147Z,0.84
2024-02-24T07:10:45.952Z,0.87
2024-02-24T07:11:47.869Z,0.91
2024-02-24T07:12:50.257Z,0.91
2024-02-24T07:13:52.079Z,0.95
2024-02-24T07:14:53.884Z,0.96
2024-02-24T07:15:55.491Z,0.87
2024-02-24T07:16:57.223Z,0.96
2024-02-24T07:17:59.095Z,0.99
2024-02-24T07:19:00.958Z,1.03
2024-02-24T07:20:02.894Z,1.06
2024-02-24T07:21:05.357Z,1.08
2024-02-24T07:22:07.120Z,1.12
2024-02-24T07:23:08.859Z,1.05
2024-02-24T07:24:10.919Z,1.12
2024-02-24T07:25:14.720Z,1.16
2024-02-24T07:26:16.293Z,1.10
2024-02-24T07:27:18.103Z,1.19
2024-02-24T07:28:19.736Z,1.17
2024-02-24T07:29:21.421Z,1.19
2024-02-24T07:30:23.022Z,1.16
2024-02-24T07:31:24.711Z,1.20
2024-02-24T07:32:26.333Z,1.12
2024-02-24T07:33:28.533Z,1.20
2024-02-24T07:34:34.529Z,1.26
2024-02-24T07:35:36.274Z,1.29
2024-02-24T07:36:38.121Z,1.32
2024-02-24T07:37:39.669Z,1.25
2024-02-24T07:38:43.858Z,1.35
2024-02-24T07:39:45.920Z,1.37
2024-02-24T07:40:47.624Z,1.41
2024-02-24T07:41:49.302Z,1.47
2024-02-24T07:42:55.614Z,1.52
2024-02-24T07:43:57.403Z,1.54
2024-02-24T07:44:59.403Z,1.45
2024-02-24T07:46:01.869Z,1.54
2024-02-24T07:47:04.630Z,1.58
2024-02-24T07:48:08.833Z,1.61
2024-02-24T07:49:13.177Z,1.66
2024-02-24T07:50:17.337Z,1.68
2024-02-24T07:51:21.641Z,1.70
2024-02-24T07:52:23.389Z,1.72
2024-02-24T07:53:24.960Z,1.59
2024-02-24T07:54:28.907Z,1.67
2024-02-24T07:55:32.110Z,1.69
2024-02-24T07:56:34.008Z,1.72
2024-02-24T07:57:35.904Z,1.76
2024-02-24T07:58:37.698Z,1.78
2024-02-24T07:59:41.715Z,1.68
2024-02-24T08:02:14.227Z,1.40
2024-02-24T08:03:18.468Z,1.30
2024-02-24T08:04:21.910Z,1.34
2024-02-24T08:05:23.880Z,1.45
2024-02-24T08:06:25.756Z,1.57
2024-02-24T08:07:28.734Z,1.64
2024-02-24T08:08:31.335Z,1.73
2024-02-24T08:09:38.437Z,1.80
2024-02-24T08:10:40.104Z,1.85
2024-02-24T08:11:42.150Z,1.70
2024-02-24T08:12:44.288Z,1.83
2024-02-24T08:13:47.275Z,1.92
2024-02-24T08:14:49.298Z,1.98
2024-02-24T08:15:51.275Z,2.03
2024-02-24T08:16:55.064Z,2.06
2024-02-24T08:17:56.751Z,1.96
2024-02-24T08:18:58.934Z,2.07
2024-02-24T08:20:00.815Z,2.10
2024-02-24T08:21:08.397Z,2.17
2024-02-24T08:22:10.342Z,2.18
2024-02-24T08:23:11.962Z,2.07
2024-02-24T08:24:17.433Z,2.21
2024-02-24T08:25:22.285Z,2.28
2024-02-24T08:26:24.025Z,2.29
2024-02-24T08:27:25.600Z,2.19
2024-02-24T08:28:29.819Z,2.28
2024-02-24T08:29:34.172Z,2.34
2024-02-24T08:30:36.557Z,2.40
2024-02-24T08:31:39.701Z,2.42
2024-02-24T08:32:41.532Z,2.47
2024-02-24T08:33:43.534Z,2.36
2024-02-24T08:34:48.003Z,2.45
2024-02-24T08:35:51.033Z,2.53
2024-02-24T08:36:53.224Z,2.54
2024-02-24T08:37:55.108Z,2.61
2024-02-24T08:38:59.548Z,2.51
2024-02-24T08:40:01.303Z,2.62
2024-02-24T08:41:03.057Z,2.55
2024-02-24T08:42:06.024Z,2.66
2024-02-24T08:43:10.300Z,2.70
2024-02-24T08:44:14.723Z,2.76
2024-02-24T08:45:16.625Z,2.78
2024-02-24T08:46:20.630Z,2.80
2024-02-24T08:47:22.393Z,2.83
2024-02-24T08:48:24.839Z,2.76
2024-02-24T08:49:26.604Z,2.86
2024-02-24T08:50:30.904Z,2.91
2024-02-24T08:51:32.705Z,2.94
2024-02-24T08:52:46.142Z,3.00
2024-02-24T08:53:58.820Z,3.05
2024-02-24T08:55:00.658Z,3.06
2024-02-24T08:56:06.229Z,2.97
2024-02-24T08:57:08.385Z,3.11
2024-02-24T08:58:10.134Z,3.19
2024-02-24T08:59:18.998Z,3.22
2024-02-24T09:00:20.866Z,3.29
2024-02-24T09:01:22.652Z,3.21
2024-02-24T09:02:24.654Z,3.34
2024-02-24T09:03:26.578Z,3.41
2024-02-24T09:04:28.302Z,3.45
2024-02-24T09:05:29.996Z,3.38
2024-02-24T09:06:32.805Z,3.46
2024-02-24T09:07:39.451Z,3.52
2024-02-24T09:08:41.374Z,3.55
2024-02-24T09:09:43.208Z,3.57
2024-02-24T09:10:44.891Z,3.49
2024-02-24T09:11:47.683Z,3.59
2024-02-24T09:12:49.528Z,3.63
2024-02-24T09:13:53.722Z,3.67
2024-02-24T09:14:55.601Z,3.68
2024-02-24T09:15:57.482Z,3.66
2024-02-24T09:16:59.142Z,3.57
2024-02-24T09:18:00.932Z,3.67
2024-02-24T09:19:03.087Z,3.72
2024-02-24T09:20:09.926Z,3.78
2024-02-24T09:21:14.237Z,3.81
2024-02-24T09:22:16.091Z,3.85
2024-02-24T09:23:17.655Z,3.67
2024-02-24T09:24:19.662Z,3.79
2024-02-24T09:25:22.867Z,3.88
2024-02-24T09:26:27.384Z,3.91
2024-02-24T09:27:30.053Z,3.92
2024-02-24T09:28:34.155Z,3.96
2024-02-24T09:29:35.881Z,4.01
2024-02-24T09:30:37.971Z,3.91
2024-02-24T09:31:41.417Z,3.98
2024-02-24T09:32:43.266Z,4.02
2024-02-24T09:33:45.254Z,4.03
2024-02-24T09:34:47.230Z,4.06
2024-02-24T09:35:49.685Z,4.13
2024-02-24T09:36:51.384Z,4.15
2024-02-24T09:37:53.090Z,4.03
2024-02-24T09:38:57.942Z,4.17
2024-02-24T09:40:04.452Z,4.19
2024-02-24T09:41:06.553Z,4.19
2024-02-24T09:42:10.793Z,4.11
2024-02-24T09:43:15.130Z,4.23
2024-02-24T09:44:17.711Z,4.32
2024-02-24T09:45:23.831Z,4.35
2024-02-24T09:46:31.018Z,4.39
2024-02-24T09:47:33.566Z,4.45
2024-02-24T09:48:35.459Z,4.52
2024-02-24T09:49:40.435Z,4.56
2024-02-24T09:50:42.796Z,4.60
2024-02-24T09:51:49.302Z,4.64
2024-02-24T09:52:51.037Z,4.70
2024-02-24T09:53:52.677Z,4.56
2024-02-24T09:54:54.353Z,4.72
2024-02-24T09:55:56.448Z,4.60
2024-02-24T09:56:58.792Z,4.77
2024-02-24T09:58:01.543Z,4.88
2024-02-24T09:59:07.213Z,4.90
2024-02-24T10:00:11.550Z,4.92
2024-02-24T10:01:16.957Z,4.98
2024-02-24T10:02:20.836Z,5.04
2024-02-24T10:03:26.422Z,5.14
2024-02-24T10:04:28.402Z,5.18
2024-02-24T10:05:32.430Z,5.15
2024-02-24T10:06:40.668Z,5.24
2024-02-24T10:07:42.456Z,5.34
2024-02-24T10:08:45.228Z,5.30
2024-02-24T10:09:48.369Z,5.52
2024-02-24T10:10:50.562Z,5.62
2024-02-24T10:11:53.246Z,5.67
2024-02-24T10:12:59.536Z,5.77
2024-02-24T10:14:01.279Z,5.87
2024-02-24T10:15:02.983Z,5.81
2024-02-24T10:16:07.577Z,5.91
2024-02-24T10:17:09.421Z,5.86
2024-02-24T10:18:11.496Z,5.96
2024-02-24T10:19:13.671Z,6.08
2024-02-24T10:20:15.540Z,6.14
2024-02-24T10:21:17.830Z,6.18
2024-02-24T10:22:20.366Z,6.22
2024-02-24T10:23:22.196Z,6.21
2024-02-24T10:24:26.887Z,6.33
2024-02-24T10:25:28.574Z,6.28
2024-02-24T10:26:32.633Z,6.49
2024-02-24T10:27:34.968Z,6.57
2024-02-24T10:28:36.812Z,6.60
2024-02-24T10:29:38.374Z,6.55
2024-02-24T10:30:41.108Z,6.69
2024-02-24T10:31:46.040Z,6.81
2024-02-24T10:32:52.060Z,6.80
2024-02-24T10:33:54.695Z,6.93
2024-02-24T10:34:57.374Z,7.04
2024-02-24T10:36:03.437Z,7.17
2024-02-24T10:37:05.275Z,7.29
2024-02-24T10:38:18.719Z,7.34
2024-02-24T10:39:35.230Z,7.37
2024-02-24T10:40:41.641Z,7.39
2024-02-24T10:41:47.694Z,7.36
2024-02-24T10:42:54.226Z,7.32
2024-02-24T10:44:10.731Z,7.34
2024-02-24T10:45:22.356Z,7.33
2024-02-24T10:46:27.108Z,7.34
2024-02-24T10:47:29.176Z,7.57
2024-02-24T10:48:31.191Z,7.60
2024-02-24T10:49:35.370Z,7.56
2024-02-24T10:50:37.413Z,7.54
2024-02-24T10:51:39.678Z,7.59
2024-02-24T10:52:41.939Z,7.59
2024-02-24T10:53:48.736Z,7.60
2024-02-24T10:54:54.546Z,7.62
2024-02-24T10:56:03.280Z,7.60
2024-02-24T10:57:06.639Z,7.66
2024-02-24T10:58:11.183Z,7.71
2024-02-24T10:59:13.036Z,7.67
2024-02-24T11:02:21.836Z,7.02
2024-02-24T11:03:24.374Z,6.93
2024-02-24T11:04:26.450Z,6.95
2024-02-24T11:05:34.382Z,7.08
2024-02-24T11:06:53.661Z,7.07
2024-02-24T11:07:58.553Z,7.20
2024-02-24T11:09:01.515Z,7.22
2024-02-24T11:10:03.490Z,7.23
2024-02-24T11:11:10.116Z,7.32
2024-02-24T11:12:12.730Z,7.43
2024-02-24T11:13:14.857Z,7.43
2024-02-24T11:14:22.545Z,7.49
2024-02-24T11:15:25.448Z,7.55
2024-02-24T11:16:27.213Z,7.54
2024-02-24T11:17:51.664Z,7.40
2024-02-24T11:18:54.407Z,7.40
2024-02-24T11:19:56.165Z,7.48
2024-02-24T11:20:57.911Z,7.24
2024-02-24T11:22:04.346Z,7.43
2024-02-24T11:23:25.952Z,7.50
2024-02-24T11:24:32.655Z,7.55
2024-02-24T11:25:34.752Z,7.57
2024-02-24T11:26:37.745Z,7.61
2024-02-24T11:27:41.847Z,7.65
2024-02-24T11:28:49.879Z,7.64
2024-02-24T11:29:51.768Z,7.66
2024-02-24T11:30:55.432Z,7.56
2024-02-24T11:32:14.731Z,7.71
2024-02-24T11:33:29.566Z,7.78
2024-02-24T11:34:35.686Z,7.87
2024-02-24T11:35:38.061Z,7.90
2024-02-24T11:36:42.059Z,7.97
2024-02-24T11:37:43.988Z,7.99
2024-02-24T11:38:48.830Z,7.99
2024-02-24T11:39:53.178Z,7.98
2024-02-24T11:40:56.515Z,8.07
2024-02-24T11:41:58.637Z,8.04
2024-02-24T11:43:00.421Z,8.15
2024-02-24T11:44:02.375Z,8.06
2024-02-24T11:45:06.065Z,8.26
2024-02-24T11:46:12.887Z,8.40
2024-02-24T11:47:20.644Z,8.49
2024-02-24T11:48:23.515Z,8.59
2024-02-24T11:49:26.602Z,8.75
2024-02-24T11:50:28.322Z,8.85
2024-02-24T11:51:30.163Z,8.98
2024-02-24T11:52:33.190Z,9.12
2024-02-24T11:53:35.265Z,9.15
2024-02-24T11:54:40.975Z,9.14
2024-02-24T11:55:43.517Z,9.19
2024-02-24T11:56:45.445Z,9.26
2024-02-24T11:57:47.189Z,9.33
2024-02-24T11:58:51.323Z,9.32
2024-02-24T11:59:52.869Z,9.14
2024-02-24T12:00:56.554Z,9.33
2024-02-24T12:01:58.468Z,9.40
2024-02-24T12:03:02.248Z,9.26
2024-02-24T12:04:04.250Z,9.34
2024-02-24T12:05:18.452Z,9.26
2024-02-24T12:06:25.113Z,9.32
2024-02-24T12:07:28.113Z,9.38
2024-02-24T12:08:30.623Z,9.34
2024-02-24T12:09:32.547Z,9.35
2024-02-24T12:10:38.499Z,9.42
2024-02-24T12:11:43.090Z,9.42
2024-02-24T12:12:45.007Z,9.40
2024-02-24T12:13:48.958Z,9.45
2024-02-24T12:14:55.141Z,9.45
2024-02-24T12:15:58.942Z,9.42
2024-02-24T12:17:00.642Z,9.42
2024-02-24T12:18:02.873Z,9.25
2024-02-24T12:19:07.818Z,9.31
2024-02-24T12:20:11.551Z,9.32
2024-02-24T12:21:15.927Z,9.31
2024-02-24T12:22:17.627Z,9.28
2024-02-24T12:23:20.308Z,9.12
2024-02-24T12:24:31.847Z,9.23
2024-02-24T12:25:37.162Z,9.28
2024-02-24T12:26:39.040Z,9.32
2024-02-24T12:27:41.966Z,9.34
2024-02-24T12:28:46.410Z,9.39
2024-02-24T12:29:48.320Z,9.42
2024-02-24T12:30:50.196Z,9.45
2024-02-24T12:31:51.827Z,9.28
2024-02-24T12:32:56.582Z,9.45
2024-02-24T12:33:58.926Z,9.39
2024-02-24T12:35:07.026Z,9.34
2024-02-24T12:36:11.408Z,9.41
2024-02-24T12:37:13.212Z,9.43
2024-02-24T12:38:17.713Z,9.28
2024-02-24T12:39:21.914Z,9.33
2024-02-24T12:40:29.167Z,9.39
2024-02-24T12:41:33.532Z,9.33
2024-02-24T12:42:40.331Z,9.34
2024-02-24T12:43:42.842Z,9.38
2024-02-24T12:44:47.226Z,9.45
2024-02-24T12:45:50.910Z,9.41
2024-02-24T12:46:53.480Z,9.45
2024-02-24T12:47:58.916Z,9.41
2024-02-24T12:49:03.007Z,9.41
2024-02-24T12:50:05.193Z,9.39
2024-02-24T12:51:06.965Z,9.34
2024-02-24T12:52:08.518Z,9.21
2024-02-24T12:53:10.458Z,9.30
2024-02-24T12:54:15.416Z,9.32
2024-02-24T12:55:18.310Z,9.34
2024-02-24T12:56:20.078Z,9.35
2024-02-24T12:57:21.672Z,9.21
2024-02-24T12:58:25.968Z,9.31
2024-02-24T12:59:29.900Z,9.34
2024-02-24T13:00:31.835Z,9.35
2024-02-24T13:01:33.731Z,9.39
2024-02-24T13:02:36.297Z,9.45
2024-02-24T13:03:38.151Z,9.43
2024-02-24T13:04:40.025Z,9.46
2024-02-24T13:05:42.007Z,9.54
2024-02-24T13:06:44.050Z,9.53
2024-02-24T13:07:45.786Z,9.57
2024-02-24T13:08:47.648Z,9.46
2024-02-24T13:09:51.891Z,9.61
2024-02-24T13:10:53.813Z,9.58
2024-02-24T13:11:56.840Z,9.62
2024-02-24T13:13:01.429Z,9.68
2024-02-24T13:14:03.268Z,9.62
2024-02-24T13:15:05.944Z,9.65
2024-02-24T13:16:09.728Z,9.73
2024-02-24T13:17:11.680Z,9.73
2024-02-24T13:18:13.527Z,9.73
2024-02-24T13:19:15.311Z,9.72
2024-02-24T13:20:17.045Z,9.64
2024-02-24T13:21:19.363Z,9.88
2024-02-24T13:22:21.619Z,9.93
2024-02-24T13:23:23.413Z,9.93
2024-02-24T13:24:25.207Z,9.92
2024-02-24T13:25:27.819Z,9.72
2024-02-24T13:26:29.809Z,9.92
2024-02-24T13:27:31.533Z,9.99
2024-02-24T13:28:33.168Z,9.96
2024-02-24T13:29:34.875Z,9.91
2024-02-24T13:30:37.131Z,9.87
2024-02-24T13:31:38.930Z,9.88
2024-02-24T13:32:41.206Z,9.71
2024-02-24T13:33:43.181Z,9.85
2024-02-24T13:34:47.274Z,9.82
2024-02-24T13:35:48.987Z,9.81
2024-02-24T13:36:50.833Z,9.76
2024-02-24T13:37:52.420Z,9.56
2024-02-24T13:38:55.790Z,9.70
2024-02-24T13:40:00.086Z,9.67
2024-02-24T13:41:01.810Z,9.66
2024-02-24T13:42:03.914Z,9.59
2024-02-24T13:43:05.718Z,9.59
2024-02-24T13:44:08.340Z,9.39
2024-02-24T13:45:10.166Z,9.34
2024-02-24T13:46:14.504Z,9.46
2024-02-24T13:47:16.772Z,9.45
2024-02-24T13:48:18.670Z,9.47
2024-02-24T13:49:21.391Z,9.21
2024-02-24T13:50:23.832Z,9.29
2024-02-24T13:51:26.785Z,9.27
2024-02-24T13:52:29.206Z,9.33
2024-02-24T13:53:34.345Z,9.34
2024-02-24T13:54:36.084Z,9.30
2024-02-24T13:55:37.925Z,9.30
2024-02-24T13:56:39.681Z,9.14
2024-02-24T13:57:42.397Z,9.21
2024-02-24T13:58:44.098Z,9.23
2024-02-24T13:59:45.977Z,9.20
2024-02-24T14:12:48.001Z,8.63
2024-02-24T14:13:50.451Z,8.58
2024-02-24T14:14:54.612Z,8.57
2024-02-24T14:15:56.309Z,8.52
2024-02-24T14:16:57.925Z,8.40
2024-02-24T14:18:00.026Z,8.42
2024-02-24T14:19:01.863Z,8.37
2024-02-24T14:20:08.551Z,8.24
2024-02-24T14:21:17.239Z,8.27
2024-02-24T14:22:18.968Z,8.10
2024-02-24T14:23:20.890Z,8.20
2024-02-24T14:24:22.626Z,8.22
2024-02-24T14:25:24.168Z,8.04
2024-02-24T14:26:26.188Z,8.23
2024-02-24T14:27:27.828Z,8.19
2024-02-24T14:28:29.512Z,8.30
2024-02-24T14:29:33.585Z,8.15